Time;durP1;ratioP1;P1;durP2;ratioP2;P2;SDS_P1;SDS_P2;PMS_P1;PMS_P2;Temp;Humidity;BMP_temperature;BMP_pressure;BME280_temperature;BME280_humidity;BME280_pressure;Samples;Min_cycle;Max_cycle;Signal;HPM_P1;HPM_P2
2021/06/22 00:00:08;;;;;;;12.10;8.57;;;;;;;;;;5113626;28;20065;-55
2021/06/22 00:02:33;;;;;;;9.48;8.32;;;;;;;;;;5105251;28;20036;-54
2021/06/22 00:04:58;;;;;;;9.68;8.68;;;;;;;;;;5108333;28;20110;-56
2021/06/22 00:07:23;;;;;;;12.73;9.50;;;;;;;;;;5112495;28;20411;-56
2021/06/22 00:09:48;;;;;;;10.52;9.43;;;;;;;;;;5113289;28;20268;-55
2021/06/22 00:12:14;;;;;;;11.70;10.50;;;;;;;;;;5110539;28;20466;-55
2021/06/22 00:14:39;;;;;;;11.05;9.77;;;;;;;;;;5108703;28;20016;-57
2021/06/22 00:17:05;;;;;;;11.93;10.52;;;;;;;;;;5106595;28;20035;-55
2021/06/22 00:19:30;;;;;;;12.02;10.68;;;;;;;;;;5092593;28;20024;-56
2021/06/22 00:21:55;;;;;;;12.65;10.52;;;;;;;;;;5100155;28;20023;-54
2021/06/22 00:24:20;;;;;;;12.13;10.88;;;;;;;;;;5107294;28;20023;-56
2021/06/22 00:26:45;;;;;;;12.75;10.88;;;;;;;;;;5113316;28;20015;-57
2021/06/22 00:29:11;;;;;;;12.05;10.50;;;;;;;;;;5112425;28;20531;-56
2021/06/22 00:31:36;;;;;;;10.90;9.50;;;;;;;;;;5094335;28;20024;-57
2021/06/22 00:34:01;;;;;;;8.50;7.22;;;;;;;;;;5111284;28;20182;-57
2021/06/22 00:36:26;;;;;;;13.13;8.40;;;;;;;;;;5104400;28;20016;-55
2021/06/22 00:38:52;;;;;;;8.25;7.05;;;;;;;;;;5106105;28;20031;-57
2021/06/22 00:41:18;;;;;;;7.47;6.68;;;;;;;;;;5109567;28;20024;-57
2021/06/22 00:43:43;;;;;;;9.45;5.80;;;;;;;;;;5112098;28;20339;-56
2021/06/22 00:46:08;;;;;;;8.52;6.97;;;;;;;;;;5112113;28;20021;-56
2021/06/22 00:48:33;;;;;;;10.00;8.05;;;;;;;;;;5105734;28;20023;-56
2021/06/22 00:50:59;;;;;;;9.40;7.70;;;;;;;;;;5089804;28;20028;-56
2021/06/22 00:53:24;;;;;;;6.65;5.95;;;;;;;;;;5104144;28;20386;-56
2021/06/22 00:55:53;;;;;;;7.25;6.55;;;;;;;;;;5112911;28;20019;-56
2021/06/22 00:58:19;;;;;;;7.28;6.57;;;;;;;;;;5109820;28;20440;-57
2021/06/22 01:00:44;;;;;;;7.88;5.38;;;;;;;;;;5089320;28;20068;-56
2021/06/22 01:03:09;;;;;;;6.95;6.22;;;;;;;;;;5096159;28;20367;-55
2021/06/22 01:05:34;;;;;;;6.93;6.20;;;;;;;;;;5097184;28;20031;-57
2021/06/22 01:08:00;;;;;;;8.90;6.57;;;;;;;;;;5110542;28;20073;-56
2021/06/22 01:10:26;;;;;;;8.55;7.10;;;;;;;;;;5107960;28;20019;-55
2021/06/22 01:12:52;;;;;;;6.10;5.47;;;;;;;;;;5103147;28;20352;-56
2021/06/22 01:15:18;;;;;;;6.97;5.68;;;;;;;;;;5107348;28;20020;-52
2021/06/22 01:17:44;;;;;;;6.55;5.88;;;;;;;;;;5100152;28;20379;-55
2021/06/22 01:20:10;;;;;;;6.35;5.53;;;;;;;;;;5112030;28;20015;-52
2021/06/22 01:22:36;;;;;;;8.05;5.93;;;;;;;;;;5096425;28;20019;-56
2021/06/22 01:25:01;;;;;;;5.53;4.78;;;;;;;;;;5112646;28;20475;-55
2021/06/22 01:27:27;;;;;;;8.52;5.90;;;;;;;;;;5112813;28;20024;-57
2021/06/22 01:29:52;;;;;;;6.63;6.00;;;;;;;;;;5112455;28;20019;-55
2021/06/22 01:32:17;;;;;;;6.45;5.75;;;;;;;;;;5107557;28;20059;-56
2021/06/22 01:34:43;;;;;;;7.15;5.70;;;;;;;;;;5101062;28;20020;-56
2021/06/22 01:37:08;;;;;;;7.03;6.40;;;;;;;;;;5098854;28;20069;-54
2021/06/22 01:39:34;;;;;;;7.32;5.78;;;;;;;;;;5093366;28;20067;-55
2021/06/22 01:41:59;;;;;;;6.20;5.60;;;;;;;;;;5109325;28;20016;-54
2021/06/22 01:44:28;;;;;;;6.53;5.80;;;;;;;;;;5113444;28;20386;-56
2021/06/22 01:46:54;;;;;;;7.13;6.18;;;;;;;;;;5112178;28;20040;-55
2021/06/22 01:49:19;;;;;;;7.43;6.25;;;;;;;;;;5113951;28;20023;-53
2021/06/22 01:51:44;;;;;;;8.90;8.00;;;;;;;;;;5101164;28;20024;-54
2021/06/22 01:54:10;;;;;;;12.52;8.68;;;;;;;;;;5102367;28;20155;-57
2021/06/22 01:56:35;;;;;;;13.60;9.13;;;;;;;;;;5096042;28;20016;-56
2021/06/22 01:59:01;;;;;;;14.07;10.25;;;;;;;;;;5104345;28;20152;-55
2021/06/22 02:01:27;;;;;;;11.90;9.60;;;;;;;;;;5109017;28;20031;-56
2021/06/22 02:03:52;;;;;;;12.20;9.52;;;;;;;;;;5106585;28;20371;-56
2021/06/22 02:06:17;;;;;;;13.90;10.80;;;;;;;;;;5113820;28;20034;-56
2021/06/22 02:08:42;;;;;;;17.08;13.55;;;;;;;;;;5115684;28;20015;-56
2021/06/22 02:11:08;;;;;;;17.58;12.35;;;;;;;;;;5095860;28;20020;-54
2021/06/22 02:13:33;;;;;;;18.02;12.10;;;;;;;;;;5114961;28;20034;-57
2021/06/22 02:15:59;;;;;;;16.92;12.60;;;;;;;;;;5115307;28;20039;-56
2021/06/22 02:18:27;;;;;;;16.13;12.02;;;;;;;;;;5115494;28;20019;-54
2021/06/22 02:20:52;;;;;;;20.88;14.38;;;;;;;;;;5110616;28;20019;-55
2021/06/22 02:23:18;;;;;;;22.60;15.20;;;;;;;;;;5106662;28;20459;-56
2021/06/22 02:25:43;;;;;;;21.70;15.13;;;;;;;;;;5112225;28;20024;-56
2021/06/22 02:28:08;;;;;;;23.83;16.20;;;;;;;;;;5102651;28;20032;-54
2021/06/22 02:30:34;;;;;;;19.38;14.38;;;;;;;;;;5092379;28;20089;-55
2021/06/22 02:32:59;;;;;;;21.33;15.13;;;;;;;;;;5095499;28;20077;-54
2021/06/22 02:35:24;;;;;;;17.67;13.68;;;;;;;;;;5096915;28;20019;-57
2021/06/22 02:37:52;;;;;;;15.73;13.18;;;;;;;;;;5115445;28;20098;-56
2021/06/22 02:40:17;;;;;;;17.65;14.25;;;;;;;;;;5106028;28;20020;-54
2021/06/22 02:42:42;;;;;;;19.25;13.77;;;;;;;;;;5104783;28;20018;-57
2021/06/22 02:45:08;;;;;;;16.35;12.05;;;;;;;;;;5111787;27;20402;-53
2021/06/22 02:47:33;;;;;;;14.65;11.68;;;;;;;;;;5098039;28;20027;-56
2021/06/22 02:49:58;;;;;;;15.40;12.75;;;;;;;;;;5096810;28;20027;-57
2021/06/22 02:52:23;;;;;;;15.63;12.32;;;;;;;;;;5094960;28;20056;-57
2021/06/22 02:54:49;;;;;;;15.70;11.80;;;;;;;;;;5114753;28;20145;-54
2021/06/22 02:57:14;;;;;;;20.05;14.43;;;;;;;;;;5114220;28;20077;-57
2021/06/22 02:59:39;;;;;;;18.23;14.88;;;;;;;;;;5113703;28;20077;-56
2021/06/22 03:02:05;;;;;;;15.23;13.02;;;;;;;;;;5103845;28;20048;-56
2021/06/22 03:04:31;;;;;;;15.98;12.57;;;;;;;;;;5094223;28;20091;-57
2021/06/22 03:06:56;;;;;;;19.05;14.52;;;;;;;;;;5094575;28;20027;-57
2021/06/22 03:09:22;;;;;;;15.02;12.77;;;;;;;;;;5094099;28;20063;-57
2021/06/22 03:11:47;;;;;;;15.60;12.75;;;;;;;;;;5093255;28;20012;-54
2021/06/22 03:14:13;;;;;;;18.80;13.35;;;;;;;;;;5094440;28;20486;-56
2021/06/22 03:16:38;;;;;;;16.05;13.20;;;;;;;;;;5094368;28;20072;-53
2021/06/22 03:19:03;;;;;;;18.58;14.45;;;;;;;;;;5113104;28;20026;-55
2021/06/22 03:21:28;;;;;;;18.58;13.93;;;;;;;;;;5106752;28;20018;-56
2021/06/22 03:23:54;;;;;;;17.48;15.40;;;;;;;;;;5113688;28;20494;-56
2021/06/22 03:26:19;;;;;;;15.93;14.15;;;;;;;;;;5103118;28;20064;-56
2021/06/22 03:28:44;;;;;;;14.73;12.20;;;;;;;;;;5099191;28;20042;-56
2021/06/22 03:31:10;;;;;;;15.30;13.70;;;;;;;;;;5111445;28;20026;-54
2021/06/22 03:33:35;;;;;;;13.82;12.05;;;;;;;;;;5114429;28;20012;-57
2021/06/22 03:36:00;;;;;;;14.73;12.48;;;;;;;;;;5105248;28;20073;-54
2021/06/22 03:38:26;;;;;;;13.57;10.50;;;;;;;;;;5093617;28;20082;-55
2021/06/22 03:40:51;;;;;;;14.85;10.55;;;;;;;;;;5090273;28;20042;-55
2021/06/22 03:43:16;;;;;;;13.65;11.15;;;;;;;;;;5099729;28;20024;-56
2021/06/22 03:45:41;;;;;;;13.35;10.57;;;;;;;;;;5113972;28;20043;-57
2021/06/22 03:48:07;;;;;;;12.20;10.40;;;;;;;;;;5112885;28;20035;-56
2021/06/22 03:50:33;;;;;;;12.05;10.32;;;;;;;;;;5110194;28;20330;-54
2021/06/22 03:52:58;;;;;;;12.20;9.77;;;;;;;;;;5094769;28;20024;-57
2021/06/22 03:55:26;;;;;;;10.98;8.77;;;;;;;;;;5112104;28;20537;-55
2021/06/22 03:57:53;;;;;;;12.95;9.48;;;;;;;;;;5113670;28;20106;-55
2021/06/22 04:00:18;;;;;;;9.98;8.80;;;;;;;;;;5112230;28;20069;-51
2021/06/22 04:02:44;;;;;;;9.43;7.60;;;;;;;;;;5101606;28;20043;-55
2021/06/22 04:05:09;;;;;;;10.45;7.80;;;;;;;;;;5113202;28;20035;-55
2021/06/22 04:07:35;;;;;;;10.02;8.13;;;;;;;;;;5094573;28;20089;-56
2021/06/22 04:10:00;;;;;;;10.15;7.90;;;;;;;;;;5093360;28;20029;-56
2021/06/22 04:12:25;;;;;;;10.38;8.13;;;;;;;;;;5103855;28;20023;-55
2021/06/22 04:14:51;;;;;;;9.32;8.02;;;;;;;;;;5113161;28;20038;-55
2021/06/22 04:17:16;;;;;;;9.25;7.65;;;;;;;;;;5113306;28;20026;-56
2021/06/22 04:19:41;;;;;;;11.88;10.35;;;;;;;;;;5095690;28;20027;-56
2021/06/22 04:22:06;;;;;;;10.80;8.43;;;;;;;;;;5102484;28;20019;-56
2021/06/22 04:24:31;;;;;;;8.80;7.85;;;;;;;;;;5112834;28;20018;-54
2021/06/22 04:26:57;;;;;;;9.43;8.38;;;;;;;;;;5096912;28;20012;-55
2021/06/22 04:29:22;;;;;;;8.82;7.93;;;;;;;;;;5092543;28;20023;-56
2021/06/22 04:31:47;;;;;;;6.65;5.97;;;;;;;;;;5090035;28;20027;-56
2021/06/22 04:34:12;;;;;;;9.55;8.65;;;;;;;;;;5102568;28;20019;-55
2021/06/22 04:36:38;;;;;;;10.13;9.10;;;;;;;;;;5103288;28;20027;-57
2021/06/22 04:39:03;;;;;;;9.93;8.98;;;;;;;;;;5103794;28;20026;-57
2021/06/22 04:41:28;;;;;;;13.35;10.70;;;;;;;;;;5103019;28;20106;-57
2021/06/22 04:43:53;;;;;;;10.93;9.82;;;;;;;;;;5094525;28;20050;-56
2021/06/22 04:46:19;;;;;;;10.23;9.23;;;;;;;;;;5094843;28;20103;-55
2021/06/22 04:48:44;;;;;;;11.50;10.30;;;;;;;;;;5092377;28;20035;-56
2021/06/22 04:51:09;;;;;;;9.90;8.90;;;;;;;;;;5089339;28;20099;-56
2021/06/22 04:53:34;;;;;;;9.90;8.80;;;;;;;;;;5091388;28;20110;-57
2021/06/22 04:56:00;;;;;;;9.95;8.88;;;;;;;;;;5095882;28;20107;-54
2021/06/22 04:58:25;;;;;;;9.95;8.95;;;;;;;;;;5107119;28;20106;-57
2021/06/22 05:00:51;;;;;;;7.60;6.90;;;;;;;;;;5098169;28;20118;-56
2021/06/22 05:03:16;;;;;;;8.73;7.85;;;;;;;;;;5094679;28;20024;-55
2021/06/22 05:05:41;;;;;;;8.82;8.02;;;;;;;;;;5095427;28;20020;-56
2021/06/22 05:08:06;;;;;;;8.15;7.35;;;;;;;;;;5113074;28;20150;-57
2021/06/22 05:10:31;;;;;;;8.95;7.85;;;;;;;;;;5110359;28;20826;-56
2021/06/22 05:12:57;;;;;;;8.00;7.28;;;;;;;;;;5110898;28;20019;-56
2021/06/22 05:15:22;;;;;;;7.50;6.75;;;;;;;;;;5101621;28;20027;-55
2021/06/22 05:17:47;;;;;;;7.10;6.40;;;;;;;;;;5094660;28;20020;-54
2021/06/22 05:20:12;;;;;;;7.55;6.85;;;;;;;;;;5113953;28;20425;-57
2021/06/22 05:22:38;;;;;;;6.50;5.93;;;;;;;;;;5107326;28;20012;-55
2021/06/22 05:25:04;;;;;;;5.93;5.35;;;;;;;;;;5100943;28;20047;-56
2021/06/22 05:27:29;;;;;;;4.95;4.55;;;;;;;;;;5113264;28;20028;-51
2021/06/22 05:29:54;;;;;;;5.10;4.60;;;;;;;;;;5113576;28;20019;-55
2021/06/22 05:32:19;;;;;;;6.20;5.60;;;;;;;;;;5094547;28;20115;-56
2021/06/22 05:34:45;;;;;;;5.45;5.05;;;;;;;;;;5115216;27;20524;-54
2021/06/22 05:37:10;;;;;;;4.70;4.30;;;;;;;;;;5111811;28;20048;-56
2021/06/22 05:39:36;;;;;;;6.07;4.43;;;;;;;;;;5111523;28;20078;-55
2021/06/22 05:42:02;;;;;;;4.65;4.30;;;;;;;;;;5111806;28;20015;-55
2021/06/22 05:44:27;;;;;;;5.07;4.22;;;;;;;;;;5114287;28;20787;-55
2021/06/22 05:46:52;;;;;;;4.43;4.13;;;;;;;;;;5104692;28;20103;-53
2021/06/22 05:49:17;;;;;;;5.03;4.63;;;;;;;;;;5103264;28;20437;-57
2021/06/22 05:51:43;;;;;;;5.50;5.00;;;;;;;;;;5106375;28;20020;-56
2021/06/22 05:54:08;;;;;;;6.38;5.78;;;;;;;;;;5095066;28;20027;-51
2021/06/22 05:56:34;;;;;;;6.05;5.55;;;;;;;;;;5095462;28;20051;-54
2021/06/22 05:58:59;;;;;;;5.00;4.60;;;;;;;;;;5097061;28;20020;-56
2021/06/22 06:01:25;;;;;;;5.47;5.07;;;;;;;;;;5093716;28;20483;-55
2021/06/22 06:03:50;;;;;;;5.85;5.35;;;;;;;;;;5115259;28;20099;-54
2021/06/22 06:06:15;;;;;;;4.90;4.40;;;;;;;;;;5115321;28;20379;-54
2021/06/22 06:08:42;;;;;;;5.85;5.35;;;;;;;;;;5115376;28;20030;-54
2021/06/22 06:11:07;;;;;;;5.40;5.00;;;;;;;;;;5112632;28;20042;-52
2021/06/22 06:13:36;;;;;;;6.28;5.68;;;;;;;;;;5114462;28;20454;-54
2021/06/22 06:16:05;;;;;;;5.90;5.47;;;;;;;;;;5103849;28;20024;-55
2021/06/22 06:18:30;;;;;;;5.78;5.28;;;;;;;;;;5112961;28;20479;-51
2021/06/22 06:20:57;;;;;;;5.97;5.47;;;;;;;;;;5094251;28;20099;-55
2021/06/22 06:23:25;;;;;;;5.97;5.47;;;;;;;;;;5115256;28;20043;-56
2021/06/22 06:25:50;;;;;;;5.50;5.10;;;;;;;;;;5098564;28;20356;-55
2021/06/22 06:28:18;;;;;;;5.60;5.20;;;;;;;;;;5098773;28;20042;-54
2021/06/22 06:30:43;;;;;;;5.45;4.90;;;;;;;;;;5110828;28;20015;-56
2021/06/22 06:33:09;;;;;;;5.15;4.75;;;;;;;;;;5096651;28;20015;-53
2021/06/22 06:35:34;;;;;;;4.90;4.50;;;;;;;;;;5110812;28;20124;-54
2021/06/22 06:37:59;;;;;;;5.22;4.82;;;;;;;;;;5113553;28;20024;-53
2021/06/22 06:40:25;;;;;;;5.40;4.95;;;;;;;;;;5103259;28;20027;-55
2021/06/22 06:42:50;;;;;;;5.07;4.68;;;;;;;;;;5101219;28;20016;-56
2021/06/22 06:45:17;;;;;;;4.55;4.25;;;;;;;;;;5100847;28;20098;-53
2021/06/22 06:47:43;;;;;;;4.13;3.70;;;;;;;;;;5111928;28;20027;-53
2021/06/22 06:50:08;;;;;;;4.95;4.60;;;;;;;;;;5107326;27;20016;-56
2021/06/22 06:52:33;;;;;;;4.10;3.80;;;;;;;;;;5101118;28;20028;-55
2021/06/22 06:54:59;;;;;;;4.30;3.95;;;;;;;;;;5099385;28;20024;-56
2021/06/22 06:57:24;;;;;;;4.20;3.90;;;;;;;;;;5108606;28;20039;-55
2021/06/22 06:59:49;;;;;;;4.63;4.30;;;;;;;;;;5113017;28;20008;-56
2021/06/22 07:02:14;;;;;;;3.97;3.67;;;;;;;;;;5093650;28;20044;-56
2021/06/22 07:04:40;;;;;;;4.43;4.13;;;;;;;;;;5096704;28;20069;-56
2021/06/22 07:07:05;;;;;;;3.85;3.55;;;;;;;;;;5112998;28;20034;-56
2021/06/22 07:09:30;;;;;;;4.45;4.05;;;;;;;;;;5103736;28;20016;-56
2021/06/22 07:11:57;;;;;;;3.60;3.40;;;;;;;;;;5108893;28;20039;-54
2021/06/22 07:14:22;;;;;;;3.78;3.50;;;;;;;;;;5114396;28;20039;-53
2021/06/22 07:16:48;;;;;;;3.53;3.33;;;;;;;;;;5113743;28;20052;-51
2021/06/22 07:19:14;;;;;;;4.00;3.67;;;;;;;;;;5104784;28;20016;-55
2021/06/22 07:21:39;;;;;;;3.50;3.25;;;;;;;;;;5104328;28;20382;-55
2021/06/22 07:24:04;;;;;;;3.78;3.58;;;;;;;;;;5097007;28;20028;-55
2021/06/22 07:26:30;;;;;;;3.60;3.30;;;;;;;;;;5108422;28;20019;-54
2021/06/22 07:28:55;;;;;;;3.70;3.40;;;;;;;;;;5100344;28;21659;-56
2021/06/22 07:31:20;;;;;;;2.90;2.72;;;;;;;;;;5100165;28;20394;-55
2021/06/22 07:33:49;;;;;;;3.92;3.63;;;;;;;;;;5100790;28;20122;-54
2021/06/22 07:36:14;;;;;;;3.63;3.33;;;;;;;;;;5112206;28;20050;-55
2021/06/22 07:38:40;;;;;;;3.50;3.30;;;;;;;;;;5111623;28;20058;-54
2021/06/22 07:41:05;;;;;;;4.95;3.47;;;;;;;;;;5093920;28;20115;-56
2021/06/22 07:43:30;;;;;;;3.60;3.30;;;;;;;;;;5095615;28;20473;-54
2021/06/22 07:45:55;;;;;;;3.33;3.13;;;;;;;;;;5102193;28;20455;-55
2021/06/22 07:48:21;;;;;;;3.22;3.03;;;;;;;;;;5113112;28;20027;-54
2021/06/22 07:50:46;;;;;;;3.70;3.47;;;;;;;;;;5094263;28;20024;-56
2021/06/22 07:53:11;;;;;;;3.38;3.00;;;;;;;;;;5107360;28;20020;-54
2021/06/22 07:55:36;;;;;;;4.15;3.75;;;;;;;;;;5113183;28;20102;-57
2021/06/22 07:58:02;;;;;;;4.40;4.10;;;;;;;;;;5091581;28;20048;-54
2021/06/22 08:00:42;;;;;;;4.53;4.20;;;;;;;;;;5097310;28;20019;-56
2021/06/22 08:03:10;;;;;;;4.38;4.07;;;;;;;;;;5111797;28;20016;-54
2021/06/22 08:05:35;;;;;;;3.53;3.33;;;;;;;;;;5113220;28;20164;-55
2021/06/22 08:08:00;;;;;;;3.83;3.53;;;;;;;;;;5112530;28;20463;-55
2021/06/22 08:10:26;;;;;;;3.55;3.25;;;;;;;;;;5099242;28;20103;-53
2021/06/22 08:12:51;;;;;;;3.75;3.42;;;;;;;;;;5107467;28;20027;-55
2021/06/22 08:15:16;;;;;;;4.78;3.72;;;;;;;;;;5103243;28;20124;-54
2021/06/22 08:17:42;;;;;;;3.20;3.00;;;;;;;;;;5100701;28;20030;-53
2021/06/22 08:20:08;;;;;;;4.55;4.25;;;;;;;;;;5104183;28;20036;-54
2021/06/22 08:22:33;;;;;;;5.40;4.90;;;;;;;;;;5095075;28;20056;-56
2021/06/22 08:24:59;;;;;;;4.18;3.88;;;;;;;;;;5101470;28;20056;-55
2021/06/22 08:27:24;;;;;;;6.45;5.95;;;;;;;;;;5093863;28;20024;-54
2021/06/22 08:29:49;;;;;;;8.20;7.40;;;;;;;;;;5099901;28;20019;-54
2021/06/22 08:32:14;;;;;;;7.25;6.75;;;;;;;;;;5096417;28;20031;-56
2021/06/22 08:34:40;;;;;;;6.97;6.47;;;;;;;;;;5105438;28;20023;-52
2021/06/22 08:37:05;;;;;;;5.75;5.35;;;;;;;;;;5099641;28;20394;-54
2021/06/22 08:39:32;;;;;;;6.20;5.65;;;;;;;;;;5108049;28;20028;-55
2021/06/22 08:41:58;;;;;;;5.13;4.72;;;;;;;;;;5106572;28;20076;-54
2021/06/22 08:44:23;;;;;;;4.95;4.60;;;;;;;;;;5100169;28;20099;-54
2021/06/22 08:46:49;;;;;;;4.75;4.35;;;;;;;;;;5110013;28;20458;-55
2021/06/22 08:49:15;;;;;;;4.68;4.25;;;;;;;;;;5092650;28;20020;-54
2021/06/22 08:51:41;;;;;;;5.03;4.63;;;;;;;;;;5096639;28;20018;-55
2021/06/22 08:54:07;;;;;;;5.63;4.90;;;;;;;;;;5112466;28;20050;-55
2021/06/22 08:56:33;;;;;;;7.68;5.65;;;;;;;;;;5108017;28;20015;-55
2021/06/22 08:58:58;;;;;;;5.78;5.38;;;;;;;;;;5111397;28;20019;-54
2021/06/22 09:01:23;;;;;;;7.25;6.55;;;;;;;;;;5099426;28;20036;-56
2021/06/22 09:03:48;;;;;;;7.28;5.40;;;;;;;;;;5107216;28;20015;-52
2021/06/22 09:06:14;;;;;;;6.13;5.63;;;;;;;;;;5108936;28;20024;-56
2021/06/22 09:08:39;;;;;;;7.88;6.30;;;;;;;;;;5106907;28;20495;-53
2021/06/22 09:11:05;;;;;;;7.18;6.55;;;;;;;;;;5100689;28;20098;-50
2021/06/22 09:13:32;;;;;;;9.57;8.77;;;;;;;;;;5101570;28;20020;-51
2021/06/22 09:15:57;;;;;;;10.77;9.57;;;;;;;;;;5098150;28;20022;-54
2021/06/22 09:18:23;;;;;;;9.55;8.75;;;;;;;;;;5102326;28;20020;-53
2021/06/22 09:20:48;;;;;;;9.18;8.27;;;;;;;;;;5104875;28;20066;-56
2021/06/22 09:23:17;;;;;;;9.70;8.85;;;;;;;;;;5097961;28;20107;-56
2021/06/22 09:25:42;;;;;;;9.40;8.50;;;;;;;;;;5106047;28;20023;-54
2021/06/22 09:28:07;;;;;;;9.45;8.65;;;;;;;;;;5091900;28;20375;-56
2021/06/22 09:30:39;;;;;;;11.07;10.15;;;;;;;;;;5098866;28;20031;-55
2021/06/22 09:33:31;;;;;;;8.57;7.93;;;;;;;;;;5103121;28;20036;-54
2021/06/22 09:35:57;;;;;;;9.45;8.55;;;;;;;;;;5092115;28;20024;-51
2021/06/22 09:38:22;;;;;;;8.35;7.05;;;;;;;;;;5109007;28;20352;-55
2021/06/22 09:41:01;;;;;;;6.15;5.63;;;;;;;;;;5105512;28;20312;-56
2021/06/22 09:43:34;;;;;;;7.13;6.32;;;;;;;;;;5108374;28;20024;-54
2021/06/22 09:45:59;;;;;;;9.32;6.40;;;;;;;;;;5109942;28;20050;-52
2021/06/22 09:48:27;;;;;;;5.97;5.47;;;;;;;;;;5099244;28;20055;-51
2021/06/22 09:50:52;;;;;;;5.93;5.43;;;;;;;;;;5106329;28;20541;-52
2021/06/22 09:53:29;;;;;;;7.57;6.88;;;;;;;;;;5099814;28;20028;-54
2021/06/22 09:55:55;;;;;;;8.10;7.10;;;;;;;;;;5091688;28;20103;-55
2021/06/22 09:58:43;;;;;;;9.23;8.43;;;;;;;;;;5097847;28;20077;-53
2021/06/22 10:01:27;;;;;;;7.88;7.13;;;;;;;;;;5088188;28;20036;-55
2021/06/22 10:03:53;;;;;;;8.45;7.65;;;;;;;;;;5102629;28;20158;-55
2021/06/22 10:06:18;;;;;;;9.30;8.38;;;;;;;;;;5101196;28;20098;-56
2021/06/22 10:08:49;;;;;;;9.88;9.00;;;;;;;;;;5113439;28;20104;-55
2021/06/22 10:11:31;;;;;;;10.18;9.18;;;;;;;;;;5113194;28;20034;-56
2021/06/22 10:13:57;;;;;;;9.40;8.60;;;;;;;;;;5115386;28;20024;-55
2021/06/22 10:16:23;;;;;;;11.05;9.98;;;;;;;;;;5104937;28;20039;-56
2021/06/22 10:18:49;;;;;;;9.77;8.98;;;;;;;;;;5104476;28;20016;-56
2021/06/22 10:21:15;;;;;;;8.40;7.70;;;;;;;;;;5111387;28;20018;-52
2021/06/22 10:23:40;;;;;;;9.13;8.20;;;;;;;;;;5114420;28;20012;-54
2021/06/22 10:26:06;;;;;;;8.75;7.95;;;;;;;;;;5114842;28;20023;-55
2021/06/22 10:28:32;;;;;;;8.13;7.53;;;;;;;;;;5113865;28;20141;-55
2021/06/22 10:30:59;;;;;;;7.95;7.25;;;;;;;;;;5105217;28;20020;-56
2021/06/22 10:33:24;;;;;;;8.00;7.40;;;;;;;;;;5097172;28;20027;-54
2021/06/22 10:35:49;;;;;;;11.38;10.38;;;;;;;;;;5106303;28;20098;-55
2021/06/22 10:38:16;;;;;;;10.40;9.60;;;;;;;;;;5102218;28;20023;-53
2021/06/22 10:40:41;;;;;;;9.50;8.70;;;;;;;;;;5097495;28;20023;-53
2021/06/22 10:43:07;;;;;;;9.35;8.65;;;;;;;;;;5109228;28;20020;-56
2021/06/22 10:45:32;;;;;;;8.65;8.05;;;;;;;;;;5094443;28;20450;-55
2021/06/22 10:48:01;;;;;;;8.70;8.02;;;;;;;;;;5104333;28;20011;-56
2021/06/22 10:50:26;;;;;;;10.15;9.35;;;;;;;;;;5099604;28;20027;-53
2021/06/22 10:53:00;;;;;;;10.65;9.75;;;;;;;;;;5109476;28;20388;-56
2021/06/22 10:55:28;;;;;;;11.05;10.15;;;;;;;;;;5113883;28;20027;-54
2021/06/22 10:57:56;;;;;;;11.25;10.38;;;;;;;;;;5109258;28;20097;-54
2021/06/22 11:00:21;;;;;;;11.25;10.50;;;;;;;;;;5112676;28;20028;-57
2021/06/22 11:03:06;;;;;;;11.43;10.63;;;;;;;;;;5105894;28;20097;-56
2021/06/22 11:05:36;;;;;;;10.77;9.98;;;;;;;;;;5105980;28;20077;-51
2021/06/22 11:08:10;;;;;;;10.57;9.88;;;;;;;;;;5107288;28;20038;-56
2021/06/22 11:10:36;;;;;;;10.05;9.32;;;;;;;;;;5111423;28;20030;-56
2021/06/22 11:13:02;;;;;;;9.77;9.02;;;;;;;;;;5104666;28;20487;-55
2021/06/22 11:15:45;;;;;;;11.60;10.63;;;;;;;;;;5100777;28;20027;-55
2021/06/22 11:18:15;;;;;;;14.20;13.10;;;;;;;;;;5103379;28;20022;-53
2021/06/22 11:20:41;;;;;;;14.65;13.48;;;;;;;;;;5106078;28;20391;-53
2021/06/22 11:23:07;;;;;;;15.38;14.10;;;;;;;;;;5110455;28;20045;-58
2021/06/22 11:25:45;;;;;;;14.80;13.63;;;;;;;;;;5112046;28;20060;-54
2021/06/22 11:28:10;;;;;;;15.63;14.32;;;;;;;;;;5109753;28;20020;-56
2021/06/22 11:30:54;;;;;;;16.13;14.73;;;;;;;;;;5105160;28;20024;-54
2021/06/22 11:33:32;;;;;;;16.07;14.60;;;;;;;;;;5111000;28;20027;-55
2021/06/22 11:36:15;;;;;;;15.80;14.40;;;;;;;;;;5102502;28;20321;-54
2021/06/22 11:38:41;;;;;;;15.60;14.30;;;;;;;;;;5100148;28;20098;-54
2021/06/22 11:41:09;;;;;;;15.07;13.88;;;;;;;;;;5102222;28;20100;-54
2021/06/22 11:43:35;;;;;;;14.77;13.57;;;;;;;;;;5113966;28;20015;-56
2021/06/22 11:46:18;;;;;;;14.98;13.88;;;;;;;;;;5109147;28;20034;-51
2021/06/22 11:48:56;;;;;;;14.20;13.00;;;;;;;;;;5093862;28;20035;-54
2021/06/22 11:51:40;;;;;;;13.15;12.15;;;;;;;;;;5110338;28;20409;-56
2021/06/22 11:54:05;;;;;;;12.52;11.60;;;;;;;;;;5111336;28;20055;-54
2021/06/22 11:56:30;;;;;;;12.20;11.30;;;;;;;;;;5096275;28;20391;-54
2021/06/22 11:58:56;;;;;;;13.23;12.07;;;;;;;;;;5093157;28;20168;-54
2021/06/22 12:01:22;;;;;;;12.70;11.60;;;;;;;;;;5102887;28;20043;-55
2021/06/22 12:03:52;;;;;;;10.88;9.88;;;;;;;;;;5093281;28;20016;-56
2021/06/22 12:06:21;;;;;;;13.73;12.60;;;;;;;;;;5094624;28;20028;-53
2021/06/22 12:08:46;;;;;;;14.35;13.18;;;;;;;;;;5101471;28;20024;-53
2021/06/22 12:11:13;;;;;;;14.27;13.10;;;;;;;;;;5103499;28;20352;-56
2021/06/22 12:13:42;;;;;;;15.25;13.95;;;;;;;;;;5108395;28;20080;-55
2021/06/22 12:16:23;;;;;;;14.25;13.15;;;;;;;;;;5109086;28;20550;-55
2021/06/22 12:18:48;;;;;;;14.18;12.95;;;;;;;;;;5100238;28;20023;-52
2021/06/22 12:21:14;;;;;;;14.10;12.98;;;;;;;;;;5098566;28;20016;-55
2021/06/22 12:23:41;;;;;;;14.40;13.20;;;;;;;;;;5101136;28;20077;-53
2021/06/22 12:26:06;;;;;;;13.65;12.15;;;;;;;;;;5110433;28;20020;-55
2021/06/22 12:28:32;;;;;;;13.95;12.77;;;;;;;;;;5110425;28;20023;-54
2021/06/22 12:30:58;;;;;;;13.23;12.23;;;;;;;;;;5109543;28;20062;-58
2021/06/22 12:33:25;;;;;;;13.93;12.82;;;;;;;;;;5109566;28;20043;-57
2021/06/22 12:35:51;;;;;;;14.45;13.18;;;;;;;;;;5109230;28;20027;-52
2021/06/22 12:38:18;;;;;;;12.70;11.68;;;;;;;;;;5110913;28;20023;-56
2021/06/22 12:40:55;;;;;;;13.60;12.43;;;;;;;;;;5107141;28;20030;-54
2021/06/22 12:43:37;;;;;;;14.85;13.57;;;;;;;;;;5112161;28;20079;-53
2021/06/22 12:46:03;;;;;;;12.30;11.40;;;;;;;;;;5110587;28;20022;-54
2021/06/22 12:48:28;;;;;;;12.88;11.95;;;;;;;;;;5112712;28;20019;-56
2021/06/22 12:50:53;;;;;;;12.90;11.80;;;;;;;;;;5093229;28;20141;-57
2021/06/22 12:53:18;;;;;;;12.88;11.82;;;;;;;;;;5092166;28;20111;-53
2021/06/22 12:55:47;;;;;;;12.30;11.20;;;;;;;;;;5108789;28;20493;-55
2021/06/22 12:58:13;;;;;;;12.75;11.68;;;;;;;;;;5097228;28;20027;-56
2021/06/22 13:00:51;;;;;;;13.55;12.25;;;;;;;;;;5090116;28;20028;-55
2021/06/22 13:03:17;;;;;;;13.93;12.68;;;;;;;;;;5109301;28;20110;-56
2021/06/22 13:05:43;;;;;;;15.85;14.48;;;;;;;;;;5112492;28;20378;-53
2021/06/22 13:08:29;;;;;;;15.10;13.93;;;;;;;;;;5111849;28;20448;-55
2021/06/22 13:10:55;;;;;;;14.57;13.43;;;;;;;;;;5106706;28;20067;-53
2021/06/22 13:13:28;;;;;;;12.50;11.43;;;;;;;;;;5092173;28;20032;-55
2021/06/22 13:16:19;;;;;;;13.45;12.25;;;;;;;;;;5092311;28;20475;-56
2021/06/22 13:19:14;;;;;;;12.43;11.43;;;;;;;;;;5097999;28;20112;-54
2021/06/22 13:21:45;;;;;;;13.32;12.23;;;;;;;;;;5091216;28;20073;-54
2021/06/22 13:24:11;;;;;;;14.32;13.23;;;;;;;;;;5109670;28;20095;-55
2021/06/22 13:26:38;;;;;;;14.52;13.32;;;;;;;;;;5109218;28;20035;-53
2021/06/22 13:29:03;;;;;;;14.43;13.13;;;;;;;;;;5110713;28;20020;-54
2021/06/22 13:31:29;;;;;;;14.55;13.18;;;;;;;;;;5099547;28;20090;-54
2021/06/22 13:33:58;;;;;;;14.68;13.30;;;;;;;;;;5110761;28;20016;-53
2021/06/22 13:36:24;;;;;;;15.77;14.57;;;;;;;;;;5111106;28;20118;-55
2021/06/22 13:39:06;;;;;;;14.40;13.15;;;;;;;;;;5110716;28;20107;-54
2021/06/22 13:41:41;;;;;;;14.10;12.90;;;;;;;;;;5107950;28;20024;-54
2021/06/22 13:44:07;;;;;;;14.95;13.70;;;;;;;;;;5115607;28;20028;-55
2021/06/22 13:46:36;;;;;;;16.95;15.45;;;;;;;;;;5105904;28;20016;-54
2021/06/22 13:49:01;;;;;;;15.20;14.00;;;;;;;;;;5102888;28;20023;-54
2021/06/22 13:51:28;;;;;;;16.10;14.80;;;;;;;;;;5107460;28;20387;-54
2021/06/22 13:54:04;;;;;;;15.30;14.00;;;;;;;;;;5109255;28;20420;-56
2021/06/22 13:56:29;;;;;;;15.93;14.50;;;;;;;;;;5103129;28;20024;-55
2021/06/22 13:58:55;;;;;;;15.82;14.48;;;;;;;;;;5110404;28;20020;-56
2021/06/22 14:01:20;;;;;;;14.30;13.20;;;;;;;;;;5110153;28;20038;-55
2021/06/22 14:03:45;;;;;;;15.98;14.65;;;;;;;;;;5095421;28;20024;-56
2021/06/22 14:06:11;;;;;;;13.27;12.18;;;;;;;;;;5098120;28;20063;-54
2021/06/22 14:08:36;;;;;;;12.90;11.80;;;;;;;;;;5102678;28;20027;-57
2021/06/22 14:11:01;;;;;;;11.88;10.98;;;;;;;;;;5099591;28;20031;-57
2021/06/22 14:13:28;;;;;;;13.05;12.10;;;;;;;;;;5097918;28;20016;-56
2021/06/22 14:15:54;;;;;;;12.13;11.13;;;;;;;;;;5099623;28;21059;-56
2021/06/22 14:18:20;;;;;;;13.43;12.43;;;;;;;;;;5102367;28;20387;-53
2021/06/22 14:20:45;;;;;;;13.30;12.30;;;;;;;;;;5097486;28;20377;-54
2021/06/22 14:23:11;;;;;;;12.38;11.27;;;;;;;;;;5096236;28;20387;-55
2021/06/22 14:25:39;;;;;;;12.57;11.68;;;;;;;;;;5109513;28;20054;-55
2021/06/22 14:28:04;;;;;;;12.98;11.98;;;;;;;;;;5107404;28;20043;-54